Main page
METAR-TAF:

METAR-TAF

Airports :

Deelen Air Base

Arnhem, Netherlands

latitude: 52-04N, longitude: 005-53E, elevation: 48 m

Current weather observation

The report was made 15 minutes ago, at 02:55 UTC
Wind 14 kt from the South with gusts up to 24 kt, varying between East/Southeast and West/Southwest
Temperature 20°C
Humidity 64%
Pressure 1002 hPa
Visibility 10 km or more
Overcast at a height of 17000 ft

METAR: EHDL 210255Z AUTO 19014G24KT 120V250 9999 OVC170 20/13 Q1002 BLU

Time: 05:10 (03:10 UTC)

Forecast

The report was made 11 hours and 0 minutes ago, at 16:10 UTC
Forecast valid from 20 at 17 UTC to 21 at 05 UTC
Wind 8 kt from the South/Southwest
Visibility 10 km or more
no clouds below 1500 m and no cumulonimbus
Becoming
from 20 at 22 UTC to 21 at 00 UTC
Wind 12 kt from the South

TAF: EHDL 201610Z 2017/2105 20008KT CAVOK BECMG 2022/2100 19012KT

Weather observations and forecasts of more than 4000 airports (METAR and TAF reports).

The available stations are represented by yellow and red dots on the map.

Hover mouse over dot to see the name of the station.

Then click to see weather observations and forecasts.

To change the map : click on the green buttons with a black cross to zoom in, on the green button with a dash to zoom out, or on the green arrows for adjacent maps.


METAR-TAF: